x

Smith Island, Wa (sisw1) Weather Station

2:00am - Mon 20th Feb 2017 All times are PST. -8 hours from GMT.

  • Wind
    14mph, 15mph gusts
  • 空気 Temp 43°f
  • Sea Pressure 1001.8mb
  • Smith Island, Wa
  • Smith Island, Wa

More Historic Weather Station data

Upgrade to MSW Pro to gain access to the past 30 days of data for over 8000 Wavebouys and Weather Stations around the globe.

Join Pro

Comparision Forecast

View Surf forecast
   
Mon 02/20 2:00am 14 15 mph 1001.8mb 43f
1:00am 14 16 mph 1002mb 43f
12:00am 21 22 mph 1001.6mb 43f
Sun 02/19 11:00pm 23 26 mph 1001.3mb 44f
10:00pm 25 29 mph 1000.7mb 44f
9:00pm 30 34 mph 999.9mb 44f
8:00pm 34 38 mph 998.9mb 44f
7:00pm 33 37 mph 998.3mb 45f
6:00pm 28 33 mph 997.7mb 45f
5:00pm 25 30 mph 997.4mb 45f
4:00pm 30 33 mph 997mb 45f
3:00pm 29 32 mph 996.7mb 45f
2:00pm 40 45 mph 995.8mb 46f
1:00pm 34 36 mph 995.5mb 46f
12:00pm 36 44 mph 995.3mb 46f
11:00am 36 39 mph 995.4mb 46f
10:00am 34 41 mph 994.9mb 45f
9:00am 36 40 mph 994.2mb 44f
8:00am 20 21 mph 994.7mb 43f
7:00am 22 26 mph 994mb 42f
6:00am 21 23 mph 994.2mb 43f
5:00am 25 29 mph 994mb 44f
4:00am 28 30 mph 994.2mb 44f
3:00am 18 22 mph 994.7mb 44f
2:00am 22 24 mph 995mb 44f
1:00am 22 25 mph 995.1mb 44f
12:00am 14 15 mph 995.4mb 44f
Sat 02/18 11:00pm 11 13 mph 995.7mb 44f
10:00pm 11 14 mph 995.8mb 44f
9:00pm 11 13 mph 995.9mb 43f
8:00pm 10 11 mph 995.7mb 43f
7:00pm 9
mph
996mb 43f
6:00pm 7 8 mph 995.8mb 43f
5:00pm 5 6 mph 995.7mb 43f
4:00pm 3
mph
995.9mb 43f
3:00pm 2
mph
995.7mb 43f
2:00pm 2
mph
995.7mb 43f
1:00pm 2 3 mph 995.8mb 43f
12:00pm 5
mph
996.4mb 43f
11:00am 5 6 mph 996.6mb 43f
10:00am 6 7 mph 997mb 42f
9:00am 3 5 mph 997.4mb 43f
8:00am 5 6 mph 997.7mb 43f
7:00am 6
mph
997.9mb 43f
6:00am 7 9 mph 998mb 43f
5:00am 9 10 mph 998.1mb 43f
4:00am 7 9 mph 998.3mb 44f
3:00am 9 11 mph 998.4mb 44f
2:00am 9 10 mph 998.7mb 44f
1:00am 10 13 mph 999.2mb 44f
12:00am 15 16 mph 999.5mb 44f
Fri 02/17 11:00pm 13 14 mph 1000.2mb 45f
10:00pm 10 11 mph 1000.5mb 44f
9:00pm 11 14 mph 1000.8mb 44f
8:00pm 10 14 mph 1001.2mb 45f
7:00pm 11 13 mph 1001.7mb 46f
6:00pm 11 14 mph 1001.8mb 46f
5:00pm 11 13 mph 1002.1mb 46f
4:00pm 7 11 mph 1002.7mb 47f
3:00pm 10 14 mph 1003.1mb 46f
2:00pm 7 8 mph 1003.8mb 47f
1:00pm 2
mph
1005mb 46f
12:00pm 1 2 mph 1005.8mb 47f
11:00am 6 7 mph 1006.2mb 49f
10:00am 9
mph
1006.5mb 47f
9:00am 10
mph
1006.8mb 45f
8:00am 9 10 mph 1007mb 45f
7:00am 9 10 mph 1007mb 45f
6:00am 10 11 mph 1007mb 45f
5:00am 9
mph
1007.1mb 44f
4:00am 6 7 mph 1007.4mb 45f
3:00am 8
mph
1007.4mb 45f
2:00am 5 6 mph 1007.2mb 46f
1:00am 3 5 mph 1006.8mb 46f
12:00am 6 8 mph 1006.2mb 46f
Thu 02/16 11:00pm 6 7 mph 1005.5mb 46f
10:00pm 9 11 mph 1004.9mb 46f
9:00pm 6 7 mph 1003.8mb 46f
8:00pm 5 6 mph 1003.4mb 46f
7:00pm 10 14 mph 1002.2mb 46f
6:00pm 17 18 mph 1001.5mb 47f
5:00pm 9 13 mph 1001mb 47f
4:00pm 6 7 mph 1000.3mb 47f
3:00pm 7 8 mph 999.4mb 49f
2:00pm 5 6 mph 998.9mb 50f
1:00pm 5 6 mph 998.5mb 51f
12:00pm 5 6 mph 998.2mb 49f